Time;durP1;ratioP1;P1;durP2;ratioP2;P2;SDS_P1;SDS_P2;PMS_P1;PMS_P2;Temp;Humidity;BMP_temperature;BMP_pressure;BME280_temperature;BME280_humidity;BME280_pressure;Samples;Min_cycle;Max_cycle;Signal;HPM_P1;HPM_P2
2022/02/22 00:02:22;;;;;;;2.33;0.90;;;;;;;4.93;90.29;98836.07;2488707;93;21114;-67
2022/02/22 00:06:24;;;;;;;3.60;3.15;;;;;;;4.72;89.53;98822.83;2463134;94;21093;-68
2022/02/22 00:10:26;;;;;;;9.10;4.75;;;;;;;4.71;88.35;98846.19;2466266;94;21102;-67
2022/02/22 00:14:28;;;;;;;1.87;1.42;;;;;;;4.58;88.68;98862.14;2482280;94;21121;-67
2022/02/22 00:18:29;;;;;;;1.35;1.20;;;;;;;4.64;88.55;98866.09;2475130;93;21137;-68
2022/02/22 00:22:31;;;;;;;1.02;0.80;;;;;;;4.69;89.56;98899.48;2465983;94;21105;-67
2022/02/22 00:26:34;;;;;;;1.22;0.88;;;;;;;4.69;90.42;98880.54;2484799;93;21108;-67
2022/02/22 00:30:35;;;;;;;10.18;1.12;;;;;;;4.84;89.48;98894.30;2485162;93;21148;-67
2022/02/22 00:34:37;;;;;;;4.15;1.17;;;;;;;4.84;88.10;98902.67;2486027;93;21164;-67
2022/02/22 00:38:38;;;;;;;6.10;2.00;;;;;;;4.84;87.95;98917.16;2462462;94;21142;-67
2022/02/22 00:42:41;;;;;;;5.20;2.62;;;;;;;4.77;88.52;98936.57;2469527;94;21210;-68
2022/02/22 00:46:43;;;;;;;2.40;1.22;;;;;;;4.76;89.00;98930.12;2452454;94;21095;-67
2022/02/22 00:50:44;;;;;;;3.55;1.40;;;;;;;4.77;88.80;98923.41;2421438;97;21165;-68
2022/02/22 00:54:45;;;;;;;2.15;1.67;;;;;;;4.80;88.50;98941.59;2466805;94;21106;-68
2022/02/22 00:58:47;;;;;;;4.42;1.72;;;;;;;4.88;89.45;98967.34;2457976;95;21140;-67
2022/02/22 01:02:49;;;;;;;9.05;2.47;;;;;;;4.87;89.26;98973.56;2487178;94;21147;-67
2022/02/22 01:06:51;;;;;;;4.75;2.47;;;;;;;4.93;89.59;98983.64;2488448;94;21164;-67
2022/02/22 01:10:53;;;;;;;5.40;1.57;;;;;;;4.95;89.54;98983.04;2487257;94;21169;-67
2022/02/22 01:14:54;;;;;;;3.20;2.15;;;;;;;4.96;89.30;98987.81;2473253;93;21150;-68
2022/02/22 01:18:56;;;;;;;5.10;1.80;;;;;;;5.00;89.25;99007.22;2497376;93;21104;-66
2022/02/22 01:22:57;;;;;;;6.97;2.15;;;;;;;5.05;88.93;99013.45;2481333;93;21117;-68
2022/02/22 01:26:59;;;;;;;3.02;1.62;;;;;;;5.03;89.49;99002.20;2474833;93;21156;-67
2022/02/22 01:31:01;;;;;;;4.25;1.60;;;;;;;4.85;90.17;99018.97;2469976;94;21136;-68
2022/02/22 01:35:06;;;;;;;2.75;1.60;;;;;;;4.81;90.05;99024.13;2472836;93;21098;-68
2022/02/22 01:39:07;;;;;;;5.72;2.40;;;;;;;4.84;90.62;99028.69;2482275;94;21117;-68
2022/02/22 01:43:09;;;;;;;2.98;1.32;;;;;;;4.92;90.11;99034.67;2477791;93;21090;-67
2022/02/22 01:47:12;;;;;;;4.72;2.95;;;;;;;4.93;89.44;99041.62;2463530;94;21178;-68
2022/02/22 01:51:14;;;;;;;2.30;1.50;;;;;;;4.96;89.47;99042.69;2465909;94;21119;-67
2022/02/22 01:55:16;;;;;;;2.37;1.40;;;;;;;4.98;89.15;99047.83;2502777;93;21084;-67
2022/02/22 01:59:19;;;;;;;2.35;1.90;;;;;;;5.06;88.62;99051.17;2475839;93;21176;-68
2022/02/22 02:03:22;;;;;;;3.75;1.90;;;;;;;5.07;88.29;99045.80;2468079;94;21074;-68
2022/02/22 02:07:23;;;;;;;4.30;2.58;;;;;;;5.11;88.49;99055.14;2474183;94;21134;-68
2022/02/22 02:11:25;;;;;;;2.95;1.72;;;;;;;5.18;88.55;99058.13;2476303;94;21144;-68
2022/02/22 02:15:27;;;;;;;5.92;2.47;;;;;;;5.20;88.30;99064.11;2470525;94;21101;-68
2022/02/22 02:19:28;;;;;;;4.78;2.37;;;;;;;5.24;87.54;99053.67;2487247;93;21106;-68
2022/02/22 02:23:30;;;;;;;4.97;0.90;;;;;;;5.16;87.79;99079.83;2501456;92;21140;-68
2022/02/22 02:27:32;;;;;;;2.52;1.40;;;;;;;5.20;87.31;99067.22;2470976;93;21117;-67
2022/02/22 02:31:35;;;;;;;3.67;2.22;;;;;;;5.26;87.21;99065.44;2480928;93;21164;-67
2022/02/22 02:35:37;;;;;;;4.95;2.50;;;;;;;5.17;86.82;99102.59;2455609;94;21138;-67
2022/02/22 02:39:38;;;;;;;2.22;2.02;;;;;;;5.29;87.37;99102.10;2497226;93;21136;-68
2022/02/22 02:43:40;;;;;;;7.20;1.65;;;;;;;5.30;87.22;99101.14;2491091;93;21124;-68
2022/02/22 02:47:41;;;;;;;6.40;1.90;;;;;;;5.28;87.86;99115.75;2489434;93;21216;-67
2022/02/22 02:51:43;;;;;;;2.90;1.77;;;;;;;5.27;87.48;99114.57;2475473;93;21137;-68
2022/02/22 02:55:45;;;;;;;8.55;2.02;;;;;;;5.24;87.87;99114.81;2477414;93;21641;-68
2022/02/22 02:59:48;;;;;;;4.08;1.85;;;;;;;5.17;89.23;99123.68;2504094;93;21120;-68
2022/02/22 03:03:50;;;;;;;1.92;1.35;;;;;;;5.12;89.54;99129.80;2520864;92;21077;-68
2022/02/22 03:07:54;;;;;;;2.95;1.32;;;;;;;5.12;90.16;99139.03;2470990;94;21060;-68
2022/02/22 03:11:55;;;;;;;2.87;1.85;;;;;;;5.14;89.57;99127.88;2474303;93;21163;-68
2022/02/22 03:15:56;;;;;;;4.20;1.47;;;;;;;5.14;89.08;99153.75;2482079;93;21118;-68
2022/02/22 03:19:58;;;;;;;4.97;2.10;;;;;;;5.12;88.92;99133.75;2514188;93;21116;-69
2022/02/22 03:24:01;;;;;;;3.65;1.37;;;;;;;5.02;88.89;99141.53;2496383;93;21093;-68
2022/02/22 03:28:08;;;;;;;6.83;1.72;;;;;;;4.97;89.17;99154.20;2468603;93;21152;-68
2022/02/22 03:32:08;;;;;;;1.82;1.40;;;;;;;4.96;89.35;99154.70;2515707;92;21132;-68
2022/02/22 03:36:10;;;;;;;6.17;2.42;;;;;;;5.03;89.41;99163.45;2507390;92;21136;-68
2022/02/22 03:40:12;;;;;;;5.45;2.20;;;;;;;5.12;89.46;99163.58;2502839;92;21124;-68
2022/02/22 03:44:14;;;;;;;5.80;1.85;;;;;;;5.20;89.64;99170.04;2505405;92;21109;-68
2022/02/22 03:48:15;;;;;;;4.53;2.45;;;;;;;5.28;89.40;99180.36;2513250;92;21600;-68
2022/02/22 03:52:17;;;;;;;3.33;1.90;;;;;;;5.34;89.63;99170.31;2483726;94;21158;-67
2022/02/22 03:56:19;;;;;;;4.60;2.37;;;;;;;5.36;90.88;99183.72;2477616;94;21154;-68
2022/02/22 04:00:25;;;;;;;10.00;2.08;;;;;;;5.37;91.48;99184.08;2479295;93;21146;-69
2022/02/22 04:04:27;;;;;;;7.47;2.72;;;;;;;5.41;91.21;99205.78;2457131;94;21151;-70
2022/02/22 04:08:29;;;;;;;4.80;2.72;;;;;;;5.42;91.42;99218.87;2439937;94;21127;-69
2022/02/22 04:12:30;;;;;;;5.37;2.40;;;;;;;5.44;92.36;99217.41;2503468;92;21124;-68
2022/02/22 04:16:32;;;;;;;2.65;1.77;;;;;;;5.50;92.96;99238.06;2496457;92;21104;-67
2022/02/22 04:20:34;;;;;;;3.40;2.87;;;;;;;5.52;93.37;99240.09;2471505;94;21742;-68
2022/02/22 04:24:36;;;;;;;9.95;3.58;;;;;;;5.61;93.19;99244.28;2475115;94;21699;-69
2022/02/22 04:28:37;;;;;;;3.22;1.65;;;;;;;5.45;93.36;99238.05;2472007;93;21090;-68
2022/02/22 04:32:39;;;;;;;4.80;2.42;;;;;;;5.29;94.00;99247.95;2513587;92;21723;-68
2022/02/22 04:36:41;;;;;;;6.72;2.25;;;;;;;5.24;94.59;99255.39;2473020;93;21115;-69
2022/02/22 04:40:43;;;;;;;7.47;3.60;;;;;;;5.22;94.54;99262.58;2475931;94;21182;-68
2022/02/22 04:44:44;;;;;;;3.70;2.50;;;;;;;5.20;94.34;99271.09;2482574;94;21202;-68
2022/02/22 04:48:46;;;;;;;5.53;2.85;;;;;;;5.15;94.17;99274.06;2479594;93;21164;-68
2022/02/22 04:52:48;;;;;;;1.98;1.77;;;;;;;5.30;94.04;99287.05;2512128;92;21093;-68
2022/02/22 04:56:50;;;;;;;5.87;1.90;;;;;;;5.23;93.37;99287.16;2474911;94;21160;-69
2022/02/22 05:00:52;;;;;;;5.95;2.37;;;;;;;5.35;93.19;99278.80;2488876;93;21075;-68
2022/02/22 05:04:54;;;;;;;4.25;1.95;;;;;;;5.37;92.70;99290.06;2486812;93;21135;-69
2022/02/22 05:08:55;;;;;;;1.77;1.52;;;;;;;5.47;91.83;99301.58;2506767;93;21076;-69
2022/02/22 05:12:57;;;;;;;3.50;1.50;;;;;;;5.53;92.13;99314.31;2523233;92;21041;-68
2022/02/22 05:16:59;;;;;;;2.35;1.45;;;;;;;5.47;92.03;99318.72;2505690;92;21153;-68
2022/02/22 05:21:00;;;;;;;2.58;1.82;;;;;;;5.47;91.66;99310.81;2480381;93;21103;-68
2022/02/22 05:25:02;;;;;;;7.60;2.08;;;;;;;5.49;91.52;99326.53;2503567;92;21042;-68
2022/02/22 05:29:04;;;;;;;4.42;2.33;;;;;;;5.48;91.05;99332.27;2472480;93;21147;-67
2022/02/22 05:33:05;;;;;;;2.37;1.75;;;;;;;5.48;91.32;99338.04;2473833;93;21092;-67
2022/02/22 05:37:07;;;;;;;7.55;2.45;;;;;;;5.47;91.35;99335.86;2468077;94;21143;-68
2022/02/22 05:41:09;;;;;;;6.35;1.77;;;;;;;5.51;91.28;99341.76;2477289;94;21111;-69
2022/02/22 05:45:11;;;;;;;4.15;2.05;;;;;;;5.50;91.18;99355.91;2470465;94;21099;-69
2022/02/22 05:49:13;;;;;;;1.72;0.98;;;;;;;5.46;91.05;99355.78;2473928;93;21151;-69
2022/02/22 05:53:14;;;;;;;11.50;1.82;;;;;;;5.42;91.14;99353.37;2502601;92;21203;-68
2022/02/22 05:57:16;;;;;;;1.62;1.12;;;;;;;5.49;91.02;99359.50;2474101;93;21091;-68
2022/02/22 06:01:18;;;;;;;2.20;1.82;;;;;;;5.46;90.97;99374.25;2475394;94;21110;-68
2022/02/22 06:05:21;;;;;;;3.17;1.52;;;;;;;5.53;90.79;99380.27;2482813;93;21099;-68
2022/02/22 06:09:23;;;;;;;4.62;1.90;;;;;;;5.56;90.67;99382.67;2497435;94;21177;-68
2022/02/22 06:13:25;;;;;;;3.80;1.55;;;;;;;5.56;90.70;99392.37;2487720;93;21147;-68
2022/02/22 06:17:27;;;;;;;5.70;2.00;;;;;;;5.62;90.37;99402.94;2493171;93;21160;-68
2022/02/22 06:21:28;;;;;;;4.62;2.35;;;;;;;5.63;90.84;99419.99;2491820;93;21113;-68
2022/02/22 06:25:30;;;;;;;4.70;2.95;;;;;;;5.61;91.06;99422.37;2482036;93;22101;-68
2022/02/22 06:29:33;;;;;;;5.10;2.10;;;;;;;5.62;90.69;99429.33;2480325;93;21098;-69
2022/02/22 06:33:35;;;;;;;3.20;1.82;;;;;;;5.58;91.12;99438.80;2438670;95;21095;-68
2022/02/22 06:37:37;;;;;;;1.87;1.70;;;;;;;5.59;91.74;99448.85;2457380;94;21133;-68
2022/02/22 06:41:39;;;;;;;2.02;1.62;;;;;;;5.55;91.21;99452.22;2510042;93;21170;-69
2022/02/22 06:45:41;;;;;;;2.70;1.60;;;;;;;5.66;92.06;99459.80;2506603;93;21208;-69
2022/02/22 06:49:43;;;;;;;4.85;1.55;;;;;;;5.68;92.70;99475.03;2477841;94;21133;-68
2022/02/22 06:53:45;;;;;;;4.67;2.87;;;;;;;5.82;92.16;99476.17;2479377;94;21174;-69
2022/02/22 06:57:55;;;;;;;6.60;3.10;;;;;;;5.85;92.17;99479.89;2480487;93;21125;-69
2022/02/22 07:01:57;;;;;;;3.85;2.25;;;;;;;5.91;92.76;99473.81;2464970;93;21141;-69
2022/02/22 07:05:58;;;;;;;4.20;2.40;;;;;;;6.01;93.10;99478.77;2475356;94;21114;-68
2022/02/22 07:10:00;;;;;;;3.50;1.98;;;;;;;6.06;92.74;99481.90;2474714;93;22263;-69
2022/02/22 07:14:01;;;;;;;3.00;1.62;;;;;;;6.10;92.73;99489.97;2481238;94;21166;-69
2022/02/22 07:18:09;;;;;;;2.83;1.90;;;;;;;6.18;91.97;99493.81;2477729;94;21101;-69
2022/02/22 07:22:11;;;;;;;4.78;2.17;;;;;;;6.13;91.79;99505.58;2489643;93;21106;-69
2022/02/22 07:26:13;;;;;;;5.55;2.05;;;;;;;6.17;91.89;99510.63;2478655;94;21141;-68
2022/02/22 07:30:17;;;;;;;3.08;2.15;;;;;;;6.04;92.28;99516.82;2481468;94;21680;-69
2022/02/22 07:34:19;;;;;;;2.37;1.85;;;;;;;6.09;91.60;99523.94;2434372;95;21154;-68
2022/02/22 07:38:20;;;;;;;3.50;1.67;;;;;;;6.11;90.56;99531.27;2492619;93;21133;-68
2022/02/22 07:42:22;;;;;;;4.17;1.72;;;;;;;6.10;90.99;99531.37;2475966;93;21155;-68
2022/02/22 07:46:23;;;;;;;7.33;2.00;;;;;;;;;;2481443;93;21156;-68
2022/02/22 07:50:25;;;;;;;11.05;3.27;;;;;;;5.94;90.88;99540.89;2473384;94;21163;-68
2022/02/22 07:54:27;;;;;;;5.25;2.22;;;;;;;5.91;91.69;99573.63;2477255;94;21095;-68
2022/02/22 07:58:28;;;;;;;7.42;3.52;;;;;;;5.92;91.54;99571.35;2476936;93;21102;-68
2022/02/22 08:02:30;;;;;;;6.58;2.42;;;;;;;5.98;90.28;99570.89;2458177;95;21159;-68
2022/02/22 08:06:31;;;;;;;6.47;2.27;;;;;;;5.87;87.63;99569.54;2488232;93;21061;-68
2022/02/22 08:10:33;;;;;;;12.63;2.77;;;;;;;5.81;87.34;99589.30;2490087;93;21106;-68
2022/02/22 08:14:35;;;;;;;11.48;2.70;;;;;;;5.76;87.31;99613.88;2475131;93;21189;-69
2022/02/22 08:18:36;;;;;;;5.85;2.37;;;;;;;5.84;86.47;99627.84;2475074;94;21761;-69
2022/02/22 08:22:38;;;;;;;9.10;4.28;;;;;;;5.90;87.38;99636.62;2491012;93;21158;-68
2022/02/22 08:26:40;;;;;;;11.65;3.25;;;;;;;6.00;85.67;99637.65;2506682;92;21109;-68
2022/02/22 08:30:42;;;;;;;9.93;5.08;;;;;;;6.05;86.21;99634.68;2511276;92;21120;-68
2022/02/22 08:34:44;;;;;;;12.28;4.10;;;;;;;6.06;86.49;99649.56;2518812;92;21628;-68
2022/02/22 08:38:46;;;;;;;6.80;3.33;;;;;;;5.93;84.82;99672.52;2513169;92;21124;-68
2022/02/22 08:42:48;;;;;;;15.45;4.28;;;;;;;6.02;83.92;99650.75;2478781;93;21153;-68
2022/02/22 08:46:51;;;;;;;15.15;4.53;;;;;;;6.12;85.17;99675.55;2478337;94;21158;-69
2022/02/22 08:50:54;;;;;;;17.98;4.83;;;;;;;6.13;81.94;99687.79;2499738;93;21141;-69
2022/02/22 08:54:56;;;;;;;8.05;4.92;;;;;;;6.32;80.67;99699.65;2505122;92;21164;-68
2022/02/22 08:58:57;;;;;;;11.45;3.95;;;;;;;6.48;79.43;99693.20;2500297;93;21152;-68
2022/02/22 09:03:00;;;;;;;9.33;4.50;;;;;;;6.45;78.36;99712.79;2475038;93;21149;-68
2022/02/22 09:07:03;;;;;;;10.82;3.58;;;;;;;6.56;76.85;99673.18;2500279;92;21090;-68
2022/02/22 09:11:04;;;;;;;16.37;5.83;;;;;;;6.49;75.56;99710.28;2502984;92;21188;-68
2022/02/22 09:15:10;;;;;;;8.23;3.25;;;;;;;6.35;75.66;99684.03;2503935;92;21425;-69
2022/02/22 09:19:12;;;;;;;9.78;3.85;;;;;;;6.23;74.77;99734.18;2519685;92;21118;-68
2022/02/22 09:23:14;;;;;;;17.40;4.80;;;;;;;6.45;74.27;99744.95;2474850;94;21113;-68
2022/02/22 09:27:16;;;;;;;12.88;5.45;;;;;;;6.53;69.72;99737.33;2480976;94;21159;-68
2022/02/22 09:31:17;;;;;;;13.18;4.20;;;;;;;6.60;70.14;99744.33;2475805;93;21189;-68
2022/02/22 09:35:27;;;;;;;13.15;5.60;;;;;;;6.73;71.01;99733.69;2483787;93;21129;-68
2022/02/22 09:39:26;;;;;;;12.65;3.80;;;;;;;7.02;70.97;99748.68;2480758;93;21654;-68
2022/02/22 09:43:27;;;;;;;11.70;3.85;;;;;;;7.18;66.52;99708.67;2476818;94;21161;-69
2022/02/22 09:47:29;;;;;;;9.60;2.67;;;;;;;7.05;65.40;99700.84;2458884;95;21099;-68
2022/02/22 09:51:31;;;;;;;15.78;4.45;;;;;;;6.83;66.73;99777.83;2486854;93;21073;-68
2022/02/22 09:55:32;;;;;;;18.77;5.28;;;;;;;6.78;65.82;99768.55;2482192;93;21155;-68
2022/02/22 09:59:35;;;;;;;16.27;5.60;;;;;;;6.65;67.94;99773.41;2480066;93;21155;-68
2022/02/22 10:03:36;;;;;;;10.72;3.55;;;;;;;6.77;68.01;99782.22;2480479;94;21082;-68
2022/02/22 10:07:58;;;;;;;14.80;4.20;;;;;;;6.68;71.18;99754.70;2478228;94;21173;-68
2022/02/22 10:11:59;;;;;;;23.05;5.62;;;;;;;6.73;70.79;99790.52;2424399;96;21122;-68
2022/02/22 10:16:08;;;;;;;16.57;4.62;;;;;;;6.76;70.11;99798.22;2468275;93;21188;-68
2022/02/22 10:20:11;;;;;;;25.40;4.05;;;;;;;6.75;70.68;99803.97;2473139;93;21694;-68
2022/02/22 10:24:16;;;;;;;19.85;6.75;;;;;;;6.73;70.02;99815.63;2472923;94;21122;-68
2022/02/22 10:28:19;;;;;;;7.53;3.20;;;;;;;6.92;68.89;99828.32;2469074;94;21209;-68
2022/02/22 10:32:25;;;;;;;6.58;3.60;;;;;;;7.03;69.69;99811.19;2520465;93;21584;-68
2022/02/22 10:36:34;;;;;;;15.23;5.75;;;;;;;7.20;69.36;99803.30;2499307;92;21140;-68
2022/02/22 10:40:36;;;;;;;8.45;4.60;;;;;;;7.29;70.37;99807.91;2501633;92;21093;-68
2022/02/22 10:44:39;;;;;;;9.68;4.47;;;;;;;7.34;68.69;99808.86;2508921;92;21142;-68
2022/02/22 10:48:43;;;;;;;12.73;4.17;;;;;;;7.21;68.81;99798.37;2477114;94;21098;-68
2022/02/22 10:52:45;;;;;;;18.87;5.97;;;;;;;7.26;68.71;99813.91;2480028;94;21137;-68
2022/02/22 10:56:47;;;;;;;10.48;3.77;;;;;;;7.43;70.33;99839.07;2479613;93;21067;-68
2022/02/22 11:00:50;;;;;;;6.45;3.52;;;;;;;7.40;69.37;99813.70;2503824;92;21116;-67
2022/02/22 11:04:51;;;;;;;9.05;3.10;;;;;;;7.57;69.81;99825.64;2471545;93;21109;-68
2022/02/22 11:08:56;;;;;;;6.28;4.12;;;;;;;7.36;67.71;99832.08;2470602;95;21119;-68
2022/02/22 11:13:01;;;;;;;7.50;3.22;;;;;;;7.29;66.93;99828.22;2481019;93;21164;-68
2022/02/22 11:17:22;;;;;;;10.98;3.20;;;;;;;7.14;67.15;99847.42;2505868;93;21085;-69
2022/02/22 11:21:28;;;;;;;11.00;4.85;;;;;;;7.21;69.94;99849.95;2511556;93;21234;-68
2022/02/22 11:25:34;;;;;;;6.55;3.87;;;;;;;7.18;66.32;99847.55;2496446;92;21105;-68
2022/02/22 11:29:36;;;;;;;15.75;4.20;;;;;;;7.31;67.67;99839.52;2500089;92;21503;-68
2022/02/22 11:33:41;;;;;;;6.55;3.10;;;;;;;7.36;67.48;99853.73;2507508;93;21784;-68
2022/02/22 11:37:46;;;;;;;4.50;2.72;;;;;;;7.41;67.58;99860.84;2462656;95;21147;-68
2022/02/22 11:41:47;;;;;;;8.30;4.03;;;;;;;7.47;66.09;99859.08;2510280;92;21117;-68
2022/02/22 11:45:51;;;;;;;14.93;2.90;;;;;;;7.48;64.01;99873.99;2506150;92;21135;-68
2022/02/22 11:49:59;;;;;;;9.58;2.15;;;;;;;7.09;70.43;99913.05;2496442;92;21130;-68
2022/02/22 11:54:06;;;;;;;10.23;3.58;;;;;;;6.89;72.26;99910.05;2460566;94;21175;-68
2022/02/22 11:58:14;;;;;;;7.90;2.85;;;;;;;7.00;72.18;99912.75;2471144;93;21161;-66
2022/02/22 12:02:36;;;;;;;13.45;3.85;;;;;;;7.13;71.35;99911.86;2507620;92;21084;-66
2022/02/22 12:06:44;;;;;;;10.40;3.08;;;;;;;7.23;65.33;99915.50;2480220;94;21152;-66
2022/02/22 12:10:58;;;;;;;16.82;4.22;;;;;;;7.18;67.48;99918.14;2493554;92;21128;-65
2022/02/22 12:15:02;;;;;;;7.90;3.05;;;;;;;7.05;71.81;99945.48;2499224;92;21117;-65
2022/02/22 12:19:07;;;;;;;7.17;1.35;;;;;;;6.43;75.41;99937.47;2487745;92;21097;-67
2022/02/22 12:23:17;;;;;;;6.40;2.67;;;;;;;6.11;73.38;99930.02;2481113;93;21103;-66
2022/02/22 12:27:19;;;;;;;13.03;2.35;;;;;;;6.23;74.93;99943.30;2481856;93;21115;-66
2022/02/22 12:31:34;;;;;;;21.27;4.53;;;;;;;6.33;74.59;99939.09;2479733;94;21681;-66
2022/02/22 12:35:39;;;;;;;6.05;3.67;;;;;;;6.48;75.40;99925.73;2498816;93;21109;-67
2022/02/22 12:39:43;;;;;;;4.85;3.08;;;;;;;6.52;76.92;99946.55;2506555;92;21191;-66
2022/02/22 12:43:47;;;;;;;7.53;4.08;;;;;;;6.65;76.13;99951.81;2505911;92;21105;-66
2022/02/22 12:47:48;;;;;;;8.20;2.58;;;;;;;6.80;74.42;99959.61;2501401;92;21144;-66
2022/02/22 12:52:00;;;;;;;10.95;3.47;;;;;;;6.68;72.80;99967.48;2465812;94;21089;-66
2022/02/22 12:56:02;;;;;;;6.75;3.17;;;;;;;6.63;74.98;99970.91;2475565;93;21136;-66
2022/02/22 13:00:06;;;;;;;11.95;2.90;;;;;;;6.42;76.53;99975.42;2482123;93;21126;-66
2022/02/22 13:04:13;;;;;;;5.33;3.42;;;;;;;6.38;78.54;99962.06;2471488;93;21131;-66
2022/02/22 13:08:16;;;;;;;4.90;3.35;;;;;;;6.40;79.84;99987.89;2482145;94;21145;-66
2022/02/22 13:12:28;;;;;;;7.87;3.12;;;;;;;5.75;80.79;100010.72;2503642;93;21143;-65
2022/02/22 13:16:30;;;;;;;4.30;2.47;;;;;;;5.62;81.30;100024.34;2492268;93;21104;-66
2022/02/22 13:20:41;;;;;;;3.95;2.37;;;;;;;5.70;82.43;100021.57;2519783;92;21211;-66
2022/02/22 13:24:43;;;;;;;9.78;2.70;;;;;;;5.67;79.82;99999.34;2496976;92;21144;-66
2022/02/22 13:28:45;;;;;;;6.12;3.25;;;;;;;5.64;78.37;100011.43;2514314;92;21140;-66
2022/02/22 13:32:49;;;;;;;6.10;3.62;;;;;;;5.75;78.69;100013.36;2504468;92;21101;-66
2022/02/22 13:36:57;;;;;;;8.35;3.50;;;;;;;5.88;79.53;100013.38;2500428;92;21151;-66
2022/02/22 13:41:11;;;;;;;13.40;3.30;;;;;;;6.04;78.54;100019.00;2474349;94;21086;-66
2022/02/22 13:45:17;;;;;;;8.05;4.05;;;;;;;6.08;79.55;100009.42;2506105;93;21173;-66
2022/02/22 13:49:20;;;;;;;8.20;5.10;;;;;;;6.40;79.99;100012.99;2503982;92;21112;-66
2022/02/22 13:53:21;;;;;;;13.15;4.25;;;;;;;6.45;79.90;100014.47;2436297;95;21120;-66
2022/02/22 13:57:23;;;;;;;6.35;3.72;;;;;;;6.39;78.66;100028.48;2449839;94;21168;-66
2022/02/22 14:01:25;;;;;;;14.70;5.78;;;;;;;6.27;78.77;100031.95;2473604;93;21126;-66
2022/02/22 14:05:26;;;;;;;8.90;4.22;;;;;;;6.35;79.75;100019.08;2460217;94;21127;-67
2022/02/22 14:09:28;;;;;;;5.72;3.58;;;;;;;6.38;79.48;100016.22;2504139;92;21149;-63
2022/02/22 14:13:35;;;;;;;7.12;3.30;;;;;;;6.51;79.58;100021.50;2480242;93;21096;-65
2022/02/22 14:17:33;;;;;;;11.60;4.33;;;;;;;6.64;79.14;100025.95;2504083;92;21108;-64
2022/02/22 14:21:36;;;;;;;8.30;4.58;;;;;;;6.80;77.78;100033.64;2511024;92;21065;-64
2022/02/22 14:25:39;;;;;;;8.40;3.70;;;;;;;6.93;76.27;100035.80;2510459;92;21072;-63
2022/02/22 14:29:45;;;;;;;11.78;5.80;;;;;;;6.78;75.34;100039.52;2447177;95;21099;-64
2022/02/22 14:33:45;;;;;;;7.80;4.28;;;;;;;6.83;74.68;100041.35;2492354;92;21104;-63
2022/02/22 14:37:46;;;;;;;8.35;4.55;;;;;;;6.70;76.53;100060.73;2498579;92;21143;-63
2022/02/22 14:41:48;;;;;;;12.95;4.17;;;;;;;6.45;77.69;100058.92;2523278;93;21065;-64
2022/02/22 14:45:50;;;;;;;14.10;3.33;;;;;;;6.36;77.07;100066.14;2528815;92;21092;-63
2022/02/22 14:49:52;;;;;;;6.37;2.95;;;;;;;6.36;77.36;100045.00;2522200;93;21120;-63
2022/02/22 14:53:53;;;;;;;6.15;4.05;;;;;;;6.45;78.69;100052.78;2524726;93;21096;-66
2022/02/22 14:57:55;;;;;;;10.88;4.33;;;;;;;6.58;78.86;100061.57;2510782;92;21096;-65
2022/02/22 15:01:57;;;;;;;10.98;3.75;;;;;;;6.51;77.83;100066.91;2471132;93;21163;-65
2022/02/22 15:06:01;;;;;;;5.00;2.83;;;;;;;6.34;76.15;100062.30;2471779;93;21151;-65
2022/02/22 15:10:04;;;;;;;20.85;4.12;;;;;;;6.21;77.53;100076.81;2468378;93;21150;-65
2022/02/22 15:14:06;;;;;;;13.53;3.67;;;;;;;6.14;77.35;100073.73;2482726;93;21088;-65
2022/02/22 15:18:09;;;;;;;17.12;5.75;;;;;;;6.04;77.13;100081.88;2477311;93;21146;-65
2022/02/22 15:22:11;;;;;;;9.95;3.60;;;;;;;6.03;76.34;100095.20;2498638;93;21116;-66
2022/02/22 15:26:12;;;;;;;15.65;5.00;;;;;;;6.01;76.68;100097.93;2489690;93;21125;-66
2022/02/22 15:30:14;;;;;;;10.55;3.80;;;;;;;6.05;76.67;100094.13;2479799;93;21240;-65
2022/02/22 15:34:16;;;;;;;13.40;3.65;;;;;;;6.02;75.35;100082.95;2468614;94;21059;-65
2022/02/22 15:38:17;;;;;;;7.12;3.12;;;;;;;6.00;75.56;100096.20;2467565;93;21138;-65
2022/02/22 15:42:20;;;;;;;6.62;3.85;;;;;;;6.02;76.51;100093.02;2477091;94;28193;-64
2022/02/22 15:46:21;;;;;;;9.03;3.52;;;;;;;6.03;77.12;100090.75;2493795;93;21133;-64
2022/02/22 15:50:23;;;;;;;12.10;4.20;;;;;;;6.04;77.44;100088.48;2472948;94;21092;-66
2022/02/22 15:54:26;;;;;;;9.10;4.80;;;;;;;6.09;77.62;100087.73;2467388;93;21082;-68
2022/02/22 15:58:28;;;;;;;9.38;4.33;;;;;;;6.19;77.87;100081.81;2417831;95;21112;-66
2022/02/22 16:02:30;;;;;;;6.80;3.98;;;;;;;6.19;77.36;100083.14;2499653;92;21152;-67
2022/02/22 16:06:32;;;;;;;11.68;4.08;;;;;;;6.16;76.95;100078.06;2498193;92;21126;-65
2022/02/22 16:10:34;;;;;;;4.12;2.65;;;;;;;6.20;77.08;100075.13;2499394;92;21117;-68
2022/02/22 16:14:36;;;;;;;9.93;4.97;;;;;;;6.24;77.25;100073.96;2507814;92;21077;-68
2022/02/22 16:18:38;;;;;;;10.38;4.95;;;;;;;6.25;77.59;100078.30;2501127;92;21120;-63
2022/02/22 16:22:46;;;;;;;16.02;6.67;;;;;;;6.26;78.06;100072.52;2472778;93;21125;-64
2022/02/22 16:26:48;;;;;;;13.75;5.70;;;;;;;6.27;78.50;100083.45;2507258;92;21073;-66
2022/02/22 16:30:50;;;;;;;10.28;4.58;;;;;;;6.22;78.69;100088.21;2500701;93;21092;-64
2022/02/22 16:34:52;;;;;;;12.13;4.70;;;;;;;6.15;78.88;100095.69;2510316;92;21108;-65
2022/02/22 16:38:54;;;;;;;12.68;5.75;;;;;;;6.05;78.97;100086.21;2488334;92;21117;-66
2022/02/22 16:42:55;;;;;;;12.28;4.47;;;;;;;6.02;79.18;100093.02;2461722;92;21173;-64
2022/02/22 16:46:57;;;;;;;12.47;6.50;;;;;;;5.98;79.56;100090.19;2440376;95;21128;-66
2022/02/22 16:51:03;;;;;;;12.28;4.67;;;;;;;5.95;79.87;100091.22;2436724;95;21415;-65
2022/02/22 16:55:04;;;;;;;10.60;5.03;;;;;;;5.96;79.75;100091.59;2438714;95;21341;-63
2022/02/22 16:59:05;;;;;;;11.85;5.28;;;;;;;5.96;79.59;100082.84;2446788;93;21173;-66
2022/02/22 17:03:07;;;;;;;12.65;7.10;;;;;;;5.98;79.11;100082.27;2471603;93;21221;-69
2022/02/22 17:07:09;;;;;;;19.75;6.67;;;;;;;5.94;78.65;100078.97;2474850;93;21070;-69
2022/02/22 17:11:12;;;;;;;18.50;7.30;;;;;;;5.89;78.06;100078.89;2491429;93;21108;-71
2022/02/22 17:15:17;;;;;;;24.43;7.58;;;;;;;5.88;77.74;100073.24;2479703;93;21105;-66
2022/02/22 17:19:19;;;;;;;20.08;5.95;;;;;;;5.88;77.13;100067.96;2490209;93;21518;-64
2022/02/22 17:23:21;;;;;;;14.28;5.50;;;;;;;5.86;76.42;100060.16;2476389;93;21165;-64
2022/02/22 17:27:22;;;;;;;31.42;7.70;;;;;;;5.83;75.78;100060.37;2500592;92;21120;-64
2022/02/22 17:31:24;;;;;;;14.33;7.25;;;;;;;5.80;75.72;100058.77;2489515;92;21161;-63
2022/02/22 17:35:26;;;;;;;14.55;6.08;;;;;;;5.72;75.25;100054.47;2501927;92;21139;-64
2022/02/22 17:39:28;;;;;;;15.00;6.17;;;;;;;5.68;74.74;100060.87;2512924;92;21080;-64
2022/02/22 17:43:30;;;;;;;17.52;6.87;;;;;;;5.60;74.35;100062.72;2472739;93;21555;-64
2022/02/22 17:47:32;;;;;;;13.20;6.92;;;;;;;5.48;73.95;100064.33;2475837;94;21075;-64
2022/02/22 17:51:35;;;;;;;17.25;6.95;;;;;;;5.42;74.03;100073.51;2468893;94;21536;-64
2022/02/22 17:55:38;;;;;;;19.40;7.28;;;;;;;5.34;74.12;100067.86;2492761;93;21101;-64
2022/02/22 17:59:39;;;;;;;10.78;5.72;;;;;;;5.29;74.05;100072.09;2506143;92;21116;-63
2022/02/22 18:03:42;;;;;;;11.40;4.12;;;;;;;5.24;73.85;100072.03;2470993;93;21414;-63
2022/02/22 18:07:47;;;;;;;13.98;5.60;;;;;;;5.24;73.68;100066.27;2422158;95;21070;-63
2022/02/22 18:11:49;;;;;;;16.00;5.00;;;;;;;5.18;73.52;100069.30;2481228;93;21067;-64
2022/02/22 18:15:51;;;;;;;21.52;7.45;;;;;;;5.20;72.92;100063.45;2503108;92;21120;-65
2022/02/22 18:19:53;;;;;;;11.53;6.55;;;;;;;5.22;72.98;100056.30;2495544;92;21180;-64
2022/02/22 18:23:55;;;;;;;16.37;6.33;;;;;;;5.23;72.35;100052.71;2503595;92;21124;-64
2022/02/22 18:27:57;;;;;;;22.00;8.78;;;;;;;5.26;72.09;100043.77;2496700;92;21136;-65
2022/02/22 18:31:58;;;;;;;22.58;7.85;;;;;;;5.28;72.03;100041.88;2469188;94;21130;-64
2022/02/22 18:36:00;;;;;;;17.05;7.15;;;;;;;5.29;72.04;100040.93;2471763;93;21066;-63
2022/02/22 18:40:03;;;;;;;19.35;7.85;;;;;;;5.25;71.57;100035.00;2443258;93;21493;-65
2022/02/22 18:44:04;;;;;;;16.23;6.58;;;;;;;5.21;71.56;100033.50;2451913;94;21106;-64
2022/02/22 18:48:06;;;;;;;19.32;8.58;;;;;;;5.15;71.21;100025.50;2466433;93;21486;-64
2022/02/22 18:52:08;;;;;;;16.73;6.78;;;;;;;5.15;71.15;100025.99;2475198;94;21166;-65
2022/02/22 18:56:09;;;;;;;23.65;8.28;;;;;;;5.14;71.63;100030.41;2472446;93;21107;-64
2022/02/22 19:00:12;;;;;;;11.43;6.33;;;;;;;5.14;71.57;100034.36;2470877;93;21094;-64
2022/02/22 19:04:15;;;;;;;15.93;8.10;;;;;;;5.10;71.53;100031.55;2438263;95;21208;-65
2022/02/22 19:08:16;;;;;;;13.68;7.85;;;;;;;5.04;71.96;100027.98;2491369;92;22502;-64